Terminal Aerodrome Forecast
Issued by NWS Charleston, WV

Current Version | Previous Version | Text Only | Print | Product List | Glossary Off
Versions: 1 2 3 4 5 6 7 8 9 10 11 12 13 14 15 16 17 18 19 20 21 22 23 24

000
FTUS41 KRLX 181700
TAFHTS
TAF
KHTS 181732Z 1818/1918 VRB05KT P6SM SCT250
     FM190900 09006KT P6SM BKN060
     FM191400 11011G16KT P6SM OVC045
     FM191500 11013G23KT 6SM -SHRA OVC025
     FM191700 11012G22KT 4SM -SHRA BR OVC015=

USA.gov is the U.S. government's official web portal to all federal, state and local government web resources and services.